sensor_id;sensor_type;location;lat;lon;timestamp;P1;durP1;ratioP1;P2;durP2;ratioP2
9485;SDS011;4781;48.776;9.200;2022-11-20T00:01:34;7.00;;;3.87;;
9485;SDS011;4781;48.776;9.200;2022-11-20T00:04:02;8.45;;;3.83;;
9485;SDS011;4781;48.776;9.200;2022-11-20T00:06:31;7.42;;;4.12;;
9485;SDS011;4781;48.776;9.200;2022-11-20T00:08:59;7.95;;;3.55;;
9485;SDS011;4781;48.776;9.200;2022-11-20T00:11:29;10.50;;;3.72;;
9485;SDS011;4781;48.776;9.200;2022-11-20T00:13:59;6.85;;;3.98;;
9485;SDS011;4781;48.776;9.200;2022-11-20T00:16:29;6.90;;;3.70;;
9485;SDS011;4781;48.776;9.200;2022-11-20T00:18:59;8.23;;;4.60;;
9485;SDS011;4781;48.776;9.200;2022-11-20T00:21:28;10.03;;;4.72;;
9485;SDS011;4781;48.776;9.200;2022-11-20T00:23:57;8.03;;;4.45;;
9485;SDS011;4781;48.776;9.200;2022-11-20T00:26:26;9.15;;;4.58;;
9485;SDS011;4781;48.776;9.200;2022-11-20T00:28:57;8.65;;;4.40;;
9485;SDS011;4781;48.776;9.200;2022-11-20T00:31:27;10.45;;;4.37;;
9485;SDS011;4781;48.776;9.200;2022-11-20T00:33:58;9.28;;;4.28;;
9485;SDS011;4781;48.776;9.200;2022-11-20T00:36:28;7.95;;;3.80;;
9485;SDS011;4781;48.776;9.200;2022-11-20T00:38:59;8.95;;;3.77;;
9485;SDS011;4781;48.776;9.200;2022-11-20T00:41:27;6.17;;;3.55;;
9485;SDS011;4781;48.776;9.200;2022-11-20T00:43:56;4.72;;;2.60;;
9485;SDS011;4781;48.776;9.200;2022-11-20T00:46:25;6.62;;;3.50;;
9485;SDS011;4781;48.776;9.200;2022-11-20T00:48:55;5.00;;;2.83;;
9485;SDS011;4781;48.776;9.200;2022-11-20T00:51:25;6.15;;;2.22;;
9485;SDS011;4781;48.776;9.200;2022-11-20T00:53:55;6.28;;;2.35;;
9485;SDS011;4781;48.776;9.200;2022-11-20T00:56:25;6.78;;;2.12;;
9485;SDS011;4781;48.776;9.200;2022-11-20T00:58:54;4.50;;;2.67;;
9485;SDS011;4781;48.776;9.200;2022-11-20T01:01:24;7.92;;;2.47;;
9485;SDS011;4781;48.776;9.200;2022-11-20T01:03:56;5.00;;;2.65;;
9485;SDS011;4781;48.776;9.200;2022-11-20T01:06:28;3.83;;;2.15;;
9485;SDS011;4781;48.776;9.200;2022-11-20T01:09:00;6.45;;;2.27;;
9485;SDS011;4781;48.776;9.200;2022-11-20T01:11:33;3.80;;;2.12;;
9485;SDS011;4781;48.776;9.200;2022-11-20T01:14:06;5.05;;;2.45;;
9485;SDS011;4781;48.776;9.200;2022-11-20T01:16:42;4.22;;;2.08;;
9485;SDS011;4781;48.776;9.200;2022-11-20T01:19:15;3.85;;;1.95;;
9485;SDS011;4781;48.776;9.200;2022-11-20T01:21:47;4.25;;;2.15;;
9485;SDS011;4781;48.776;9.200;2022-11-20T01:24:19;5.28;;;1.98;;
9485;SDS011;4781;48.776;9.200;2022-11-20T01:26:49;3.65;;;1.95;;
9485;SDS011;4781;48.776;9.200;2022-11-20T01:29:20;4.20;;;2.25;;
9485;SDS011;4781;48.776;9.200;2022-11-20T01:31:51;4.10;;;1.80;;
9485;SDS011;4781;48.776;9.200;2022-11-20T01:34:20;4.58;;;2.10;;
9485;SDS011;4781;48.776;9.200;2022-11-20T01:36:50;4.17;;;2.02;;
9485;SDS011;4781;48.776;9.200;2022-11-20T01:39:21;4.28;;;1.75;;
9485;SDS011;4781;48.776;9.200;2022-11-20T01:41:52;3.55;;;2.15;;
9485;SDS011;4781;48.776;9.200;2022-11-20T01:47:34;3.52;;;2.00;;
9485;SDS011;4781;48.776;9.200;2022-11-20T01:52:51;3.52;;;1.60;;
9485;SDS011;4781;48.776;9.200;2022-11-20T01:55:23;2.90;;;1.82;;
9485;SDS011;4781;48.776;9.200;2022-11-20T01:58:00;3.35;;;1.85;;
9485;SDS011;4781;48.776;9.200;2022-11-20T02:00:30;3.47;;;2.07;;
9485;SDS011;4781;48.776;9.200;2022-11-20T02:03:00;3.22;;;1.70;;
9485;SDS011;4781;48.776;9.200;2022-11-20T02:08:27;4.37;;;2.02;;
9485;SDS011;4781;48.776;9.200;2022-11-20T02:10:57;3.80;;;2.12;;
9485;SDS011;4781;48.776;9.200;2022-11-20T02:13:25;4.75;;;2.30;;
9485;SDS011;4781;48.776;9.200;2022-11-20T02:16:21;4.60;;;1.85;;
9485;SDS011;4781;48.776;9.200;2022-11-20T02:19:00;4.15;;;2.17;;
9485;SDS011;4781;48.776;9.200;2022-11-20T02:21:37;3.20;;;1.77;;
9485;SDS011;4781;48.776;9.200;2022-11-20T02:24:24;4.40;;;2.00;;
9485;SDS011;4781;48.776;9.200;2022-11-20T02:26:53;6.95;;;2.00;;
9485;SDS011;4781;48.776;9.200;2022-11-20T02:29:37;4.05;;;2.05;;
9485;SDS011;4781;48.776;9.200;2022-11-20T02:32:22;3.92;;;2.00;;
9485;SDS011;4781;48.776;9.200;2022-11-20T02:37:26;3.47;;;1.65;;
9485;SDS011;4781;48.776;9.200;2022-11-20T02:39:56;2.67;;;1.50;;
9485;SDS011;4781;48.776;9.200;2022-11-20T02:42:25;6.87;;;2.10;;
9485;SDS011;4781;48.776;9.200;2022-11-20T02:44:53;3.20;;;1.65;;
9485;SDS011;4781;48.776;9.200;2022-11-20T02:47:22;3.75;;;1.90;;
9485;SDS011;4781;48.776;9.200;2022-11-20T02:49:50;3.70;;;1.95;;
9485;SDS011;4781;48.776;9.200;2022-11-20T02:52:18;4.65;;;2.33;;
9485;SDS011;4781;48.776;9.200;2022-11-20T02:54:47;5.10;;;1.67;;
9485;SDS011;4781;48.776;9.200;2022-11-20T02:57:15;3.83;;;1.70;;
9485;SDS011;4781;48.776;9.200;2022-11-20T02:59:44;7.47;;;2.10;;
9485;SDS011;4781;48.776;9.200;2022-11-20T03:02:12;2.98;;;1.70;;
9485;SDS011;4781;48.776;9.200;2022-11-20T03:04:40;4.90;;;1.87;;
9485;SDS011;4781;48.776;9.200;2022-11-20T03:07:09;4.97;;;1.80;;
9485;SDS011;4781;48.776;9.200;2022-11-20T03:09:37;4.22;;;1.90;;
9485;SDS011;4781;48.776;9.200;2022-11-20T03:12:06;3.75;;;1.85;;
9485;SDS011;4781;48.776;9.200;2022-11-20T03:14:34;5.67;;;2.10;;
9485;SDS011;4781;48.776;9.200;2022-11-20T03:17:02;3.67;;;1.80;;
9485;SDS011;4781;48.776;9.200;2022-11-20T03:19:31;7.35;;;2.15;;
9485;SDS011;4781;48.776;9.200;2022-11-20T03:22:00;3.77;;;2.27;;
9485;SDS011;4781;48.776;9.200;2022-11-20T03:24:28;5.90;;;2.10;;
9485;SDS011;4781;48.776;9.200;2022-11-20T03:26:57;6.85;;;2.25;;
9485;SDS011;4781;48.776;9.200;2022-11-20T03:29:25;4.85;;;1.98;;
9485;SDS011;4781;48.776;9.200;2022-11-20T03:31:53;5.05;;;2.30;;
9485;SDS011;4781;48.776;9.200;2022-11-20T03:34:22;4.67;;;2.10;;
9485;SDS011;4781;48.776;9.200;2022-11-20T03:36:50;3.47;;;1.92;;
9485;SDS011;4781;48.776;9.200;2022-11-20T03:39:19;4.05;;;2.20;;
9485;SDS011;4781;48.776;9.200;2022-11-20T03:41:47;3.77;;;2.15;;
9485;SDS011;4781;48.776;9.200;2022-11-20T03:44:15;4.17;;;2.35;;
9485;SDS011;4781;48.776;9.200;2022-11-20T03:46:44;4.17;;;2.15;;
9485;SDS011;4781;48.776;9.200;2022-11-20T03:49:12;4.28;;;2.00;;
9485;SDS011;4781;48.776;9.200;2022-11-20T03:51:40;4.10;;;2.10;;
9485;SDS011;4781;48.776;9.200;2022-11-20T03:54:09;3.77;;;2.02;;
9485;SDS011;4781;48.776;9.200;2022-11-20T03:56:37;4.75;;;2.20;;
9485;SDS011;4781;48.776;9.200;2022-11-20T03:59:06;4.95;;;2.52;;
9485;SDS011;4781;48.776;9.200;2022-11-20T04:01:36;4.37;;;2.37;;
9485;SDS011;4781;48.776;9.200;2022-11-20T04:04:06;4.60;;;2.20;;
9485;SDS011;4781;48.776;9.200;2022-11-20T04:06:36;4.75;;;2.45;;
9485;SDS011;4781;48.776;9.200;2022-11-20T04:09:05;4.08;;;1.85;;
9485;SDS011;4781;48.776;9.200;2022-11-20T04:11:35;3.45;;;2.25;;
9485;SDS011;4781;48.776;9.200;2022-11-20T04:14:06;4.40;;;1.92;;
9485;SDS011;4781;48.776;9.200;2022-11-20T04:16:40;7.67;;;2.93;;
9485;SDS011;4781;48.776;9.200;2022-11-20T04:19:10;3.87;;;2.22;;
9485;SDS011;4781;48.776;9.200;2022-11-20T04:21:41;4.87;;;2.37;;
9485;SDS011;4781;48.776;9.200;2022-11-20T04:24:11;4.92;;;2.30;;
9485;SDS011;4781;48.776;9.200;2022-11-20T04:26:39;4.20;;;2.15;;
9485;SDS011;4781;48.776;9.200;2022-11-20T04:29:10;5.10;;;2.45;;
9485;SDS011;4781;48.776;9.200;2022-11-20T04:31:38;7.72;;;2.47;;
9485;SDS011;4781;48.776;9.200;2022-11-20T04:34:07;6.47;;;2.50;;
9485;SDS011;4781;48.776;9.200;2022-11-20T04:36:37;4.75;;;2.20;;
9485;SDS011;4781;48.776;9.200;2022-11-20T04:39:05;3.67;;;2.12;;
9485;SDS011;4781;48.776;9.200;2022-11-20T04:41:36;3.72;;;1.95;;
9485;SDS011;4781;48.776;9.200;2022-11-20T04:44:05;4.50;;;2.20;;
9485;SDS011;4781;48.776;9.200;2022-11-20T04:46:34;4.20;;;1.82;;
9485;SDS011;4781;48.776;9.200;2022-11-20T04:49:10;4.55;;;2.35;;
9485;SDS011;4781;48.776;9.200;2022-11-20T04:51:39;5.67;;;2.22;;
9485;SDS011;4781;48.776;9.200;2022-11-20T04:54:08;3.90;;;2.00;;
9485;SDS011;4781;48.776;9.200;2022-11-20T04:56:37;4.05;;;1.95;;
9485;SDS011;4781;48.776;9.200;2022-11-20T04:59:06;4.05;;;1.87;;
9485;SDS011;4781;48.776;9.200;2022-11-20T05:01:34;3.62;;;2.10;;
9485;SDS011;4781;48.776;9.200;2022-11-20T05:04:03;3.50;;;2.02;;
9485;SDS011;4781;48.776;9.200;2022-11-20T05:06:31;3.70;;;1.82;;
9485;SDS011;4781;48.776;9.200;2022-11-20T05:09:00;5.03;;;1.85;;
9485;SDS011;4781;48.776;9.200;2022-11-20T05:11:28;3.25;;;1.80;;
9485;SDS011;4781;48.776;9.200;2022-11-20T05:13:58;3.15;;;1.80;;
9485;SDS011;4781;48.776;9.200;2022-11-20T05:16:27;3.58;;;1.90;;
9485;SDS011;4781;48.776;9.200;2022-11-20T05:18:55;4.03;;;1.95;;
9485;SDS011;4781;48.776;9.200;2022-11-20T05:21:23;6.03;;;2.22;;
9485;SDS011;4781;48.776;9.200;2022-11-20T05:23:53;4.50;;;2.17;;
9485;SDS011;4781;48.776;9.200;2022-11-20T05:26:21;4.62;;;1.80;;
9485;SDS011;4781;48.776;9.200;2022-11-20T05:28:50;3.45;;;1.85;;
9485;SDS011;4781;48.776;9.200;2022-11-20T05:31:20;3.52;;;2.00;;
9485;SDS011;4781;48.776;9.200;2022-11-20T05:33:50;4.12;;;1.70;;
9485;SDS011;4781;48.776;9.200;2022-11-20T05:36:19;5.45;;;2.27;;
9485;SDS011;4781;48.776;9.200;2022-11-20T05:38:47;7.50;;;2.12;;
9485;SDS011;4781;48.776;9.200;2022-11-20T05:41:16;5.00;;;2.45;;
9485;SDS011;4781;48.776;9.200;2022-11-20T05:43:47;3.55;;;1.80;;
9485;SDS011;4781;48.776;9.200;2022-11-20T05:46:17;4.70;;;2.10;;
9485;SDS011;4781;48.776;9.200;2022-11-20T05:48:47;3.42;;;1.85;;
9485;SDS011;4781;48.776;9.200;2022-11-20T05:51:16;7.10;;;2.17;;
9485;SDS011;4781;48.776;9.200;2022-11-20T05:53:46;4.53;;;1.67;;
9485;SDS011;4781;48.776;9.200;2022-11-20T05:56:16;3.40;;;2.02;;
9485;SDS011;4781;48.776;9.200;2022-11-20T05:58:47;3.75;;;1.75;;
9485;SDS011;4781;48.776;9.200;2022-11-20T06:01:20;4.35;;;2.08;;
9485;SDS011;4781;48.776;9.200;2022-11-20T06:03:50;4.75;;;1.90;;
9485;SDS011;4781;48.776;9.200;2022-11-20T06:06:20;3.15;;;1.75;;
9485;SDS011;4781;48.776;9.200;2022-11-20T06:11:38;4.30;;;1.47;;
9485;SDS011;4781;48.776;9.200;2022-11-20T06:14:06;3.30;;;2.02;;
9485;SDS011;4781;48.776;9.200;2022-11-20T06:16:35;3.33;;;1.90;;
9485;SDS011;4781;48.776;9.200;2022-11-20T06:19:03;4.40;;;1.95;;
9485;SDS011;4781;48.776;9.200;2022-11-20T06:21:32;3.65;;;1.70;;
9485;SDS011;4781;48.776;9.200;2022-11-20T06:24:00;2.80;;;1.60;;
9485;SDS011;4781;48.776;9.200;2022-11-20T06:26:28;3.17;;;1.65;;
9485;SDS011;4781;48.776;9.200;2022-11-20T06:28:58;3.60;;;1.80;;
9485;SDS011;4781;48.776;9.200;2022-11-20T06:31:26;4.85;;;2.15;;
9485;SDS011;4781;48.776;9.200;2022-11-20T06:33:55;5.47;;;2.00;;
9485;SDS011;4781;48.776;9.200;2022-11-20T06:36:23;4.70;;;1.60;;
9485;SDS011;4781;48.776;9.200;2022-11-20T06:38:55;5.70;;;1.72;;
9485;SDS011;4781;48.776;9.200;2022-11-20T06:41:23;3.70;;;1.70;;
9485;SDS011;4781;48.776;9.200;2022-11-20T06:43:52;3.02;;;1.50;;
9485;SDS011;4781;48.776;9.200;2022-11-20T06:46:20;2.52;;;1.45;;
9485;SDS011;4781;48.776;9.200;2022-11-20T06:48:49;3.65;;;1.77;;
9485;SDS011;4781;48.776;9.200;2022-11-20T06:51:18;4.80;;;1.77;;
9485;SDS011;4781;48.776;9.200;2022-11-20T06:53:47;3.47;;;1.67;;
9485;SDS011;4781;48.776;9.200;2022-11-20T06:56:15;2.70;;;1.50;;
9485;SDS011;4781;48.776;9.200;2022-11-20T06:58:43;3.67;;;1.45;;
9485;SDS011;4781;48.776;9.200;2022-11-20T07:01:13;3.07;;;1.43;;
9485;SDS011;4781;48.776;9.200;2022-11-20T07:03:42;3.83;;;2.00;;
9485;SDS011;4781;48.776;9.200;2022-11-20T07:06:11;3.25;;;1.62;;
9485;SDS011;4781;48.776;9.200;2022-11-20T07:08:39;3.02;;;1.55;;
9485;SDS011;4781;48.776;9.200;2022-11-20T07:11:07;3.33;;;1.85;;
9485;SDS011;4781;48.776;9.200;2022-11-20T07:13:38;3.22;;;1.80;;
9485;SDS011;4781;48.776;9.200;2022-11-20T07:16:06;2.98;;;1.37;;
9485;SDS011;4781;48.776;9.200;2022-11-20T07:18:35;3.35;;;1.85;;
9485;SDS011;4781;48.776;9.200;2022-11-20T07:21:05;3.98;;;1.92;;
9485;SDS011;4781;48.776;9.200;2022-11-20T07:23:35;3.08;;;1.62;;
9485;SDS011;4781;48.776;9.200;2022-11-20T07:26:05;5.62;;;1.42;;
9485;SDS011;4781;48.776;9.200;2022-11-20T07:28:35;4.92;;;1.90;;
9485;SDS011;4781;48.776;9.200;2022-11-20T07:31:05;4.42;;;2.20;;
9485;SDS011;4781;48.776;9.200;2022-11-20T07:33:33;3.00;;;1.60;;
9485;SDS011;4781;48.776;9.200;2022-11-20T07:36:02;3.37;;;1.57;;
9485;SDS011;4781;48.776;9.200;2022-11-20T07:38:30;3.50;;;1.62;;
9485;SDS011;4781;48.776;9.200;2022-11-20T07:40:59;6.20;;;2.00;;
9485;SDS011;4781;48.776;9.200;2022-11-20T07:43:30;3.55;;;1.62;;
9485;SDS011;4781;48.776;9.200;2022-11-20T07:45:58;4.22;;;1.55;;
9485;SDS011;4781;48.776;9.200;2022-11-20T07:48:27;3.33;;;1.57;;
9485;SDS011;4781;48.776;9.200;2022-11-20T07:50:55;3.35;;;1.40;;
9485;SDS011;4781;48.776;9.200;2022-11-20T07:53:24;4.47;;;1.85;;
9485;SDS011;4781;48.776;9.200;2022-11-20T07:55:53;2.65;;;1.45;;
9485;SDS011;4781;48.776;9.200;2022-11-20T07:58:21;6.30;;;1.60;;
9485;SDS011;4781;48.776;9.200;2022-11-20T08:00:50;3.58;;;1.42;;
9485;SDS011;4781;48.776;9.200;2022-11-20T08:03:18;2.25;;;1.30;;
9485;SDS011;4781;48.776;9.200;2022-11-20T08:05:46;3.52;;;1.45;;
9485;SDS011;4781;48.776;9.200;2022-11-20T08:08:15;3.47;;;1.55;;
9485;SDS011;4781;48.776;9.200;2022-11-20T08:10:43;3.40;;;1.50;;
9485;SDS011;4781;48.776;9.200;2022-11-20T08:13:11;3.75;;;1.57;;
9485;SDS011;4781;48.776;9.200;2022-11-20T08:15:57;2.37;;;1.30;;
9485;SDS011;4781;48.776;9.200;2022-11-20T08:18:25;5.25;;;1.40;;
9485;SDS011;4781;48.776;9.200;2022-11-20T08:20:54;3.08;;;1.40;;
9485;SDS011;4781;48.776;9.200;2022-11-20T08:23:22;5.58;;;1.57;;
9485;SDS011;4781;48.776;9.200;2022-11-20T08:25:51;4.80;;;2.02;;
9485;SDS011;4781;48.776;9.200;2022-11-20T08:28:19;2.98;;;1.55;;
9485;SDS011;4781;48.776;9.200;2022-11-20T08:30:47;2.20;;;1.20;;
9485;SDS011;4781;48.776;9.200;2022-11-20T08:33:16;3.20;;;1.37;;
9485;SDS011;4781;48.776;9.200;2022-11-20T08:35:45;3.37;;;1.50;;
9485;SDS011;4781;48.776;9.200;2022-11-20T08:38:13;3.08;;;1.30;;
9485;SDS011;4781;48.776;9.200;2022-11-20T08:40:42;3.52;;;1.42;;
9485;SDS011;4781;48.776;9.200;2022-11-20T08:43:12;2.77;;;1.10;;
9485;SDS011;4781;48.776;9.200;2022-11-20T08:45:40;2.27;;;1.27;;
9485;SDS011;4781;48.776;9.200;2022-11-20T08:48:09;2.77;;;1.27;;
9485;SDS011;4781;48.776;9.200;2022-11-20T08:50:37;1.45;;;0.98;;
9485;SDS011;4781;48.776;9.200;2022-11-20T08:53:06;1.90;;;0.98;;
9485;SDS011;4781;48.776;9.200;2022-11-20T08:55:34;2.72;;;1.35;;
9485;SDS011;4781;48.776;9.200;2022-11-20T08:58:03;3.00;;;1.20;;
9485;SDS011;4781;48.776;9.200;2022-11-20T09:00:33;2.27;;;1.10;;
9485;SDS011;4781;48.776;9.200;2022-11-20T09:03:02;1.92;;;1.17;;
9485;SDS011;4781;48.776;9.200;2022-11-20T09:05:30;1.45;;;0.82;;
9485;SDS011;4781;48.776;9.200;2022-11-20T09:07:59;2.77;;;1.12;;
9485;SDS011;4781;48.776;9.200;2022-11-20T09:10:28;2.52;;;1.20;;
9485;SDS011;4781;48.776;9.200;2022-11-20T09:12:56;2.20;;;1.20;;
9485;SDS011;4781;48.776;9.200;2022-11-20T09:15:25;2.20;;;1.07;;
9485;SDS011;4781;48.776;9.200;2022-11-20T09:17:55;1.77;;;1.00;;
9485;SDS011;4781;48.776;9.200;2022-11-20T09:20:25;2.47;;;1.17;;
9485;SDS011;4781;48.776;9.200;2022-11-20T09:22:55;1.50;;;0.90;;
9485;SDS011;4781;48.776;9.200;2022-11-20T09:25:25;2.35;;;1.20;;
9485;SDS011;4781;48.776;9.200;2022-11-20T09:27:59;2.20;;;1.00;;
9485;SDS011;4781;48.776;9.200;2022-11-20T09:30:28;1.77;;;0.90;;
9485;SDS011;4781;48.776;9.200;2022-11-20T09:32:56;1.87;;;0.90;;
9485;SDS011;4781;48.776;9.200;2022-11-20T09:35:25;1.75;;;0.90;;
9485;SDS011;4781;48.776;9.200;2022-11-20T09:37:53;2.30;;;1.00;;
9485;SDS011;4781;48.776;9.200;2022-11-20T09:40:22;2.10;;;0.98;;
9485;SDS011;4781;48.776;9.200;2022-11-20T09:43:10;2.22;;;1.15;;
9485;SDS011;4781;48.776;9.200;2022-11-20T09:46:09;1.87;;;0.88;;
9485;SDS011;4781;48.776;9.200;2022-11-20T09:52:00;1.98;;;0.90;;
9485;SDS011;4781;48.776;9.200;2022-11-20T09:54:41;2.17;;;0.80;;
9485;SDS011;4781;48.776;9.200;2022-11-20T09:57:14;1.10;;;0.70;;
9485;SDS011;4781;48.776;9.200;2022-11-20T09:59:59;1.77;;;0.90;;
9485;SDS011;4781;48.776;9.200;2022-11-20T10:02:34;0.80;;;0.50;;
9485;SDS011;4781;48.776;9.200;2022-11-20T10:05:06;1.98;;;0.98;;
9485;SDS011;4781;48.776;9.200;2022-11-20T10:10:45;1.60;;;0.88;;
9485;SDS011;4781;48.776;9.200;2022-11-20T10:16:43;1.10;;;0.82;;
9485;SDS011;4781;48.776;9.200;2022-11-20T10:19:41;1.62;;;0.78;;
9485;SDS011;4781;48.776;9.200;2022-11-20T10:22:35;2.15;;;0.95;;
9485;SDS011;4781;48.776;9.200;2022-11-20T10:25:18;2.35;;;0.85;;
9485;SDS011;4781;48.776;9.200;2022-11-20T10:27:56;2.37;;;0.80;;
9485;SDS011;4781;48.776;9.200;2022-11-20T10:30:28;6.37;;;0.90;;
9485;SDS011;4781;48.776;9.200;2022-11-20T10:32:59;1.30;;;0.75;;
9485;SDS011;4781;48.776;9.200;2022-11-20T10:35:52;1.25;;;0.70;;
9485;SDS011;4781;48.776;9.200;2022-11-20T10:38:29;1.17;;;0.78;;
9485;SDS011;4781;48.776;9.200;2022-11-20T10:41:00;2.60;;;1.20;;
9485;SDS011;4781;48.776;9.200;2022-11-20T10:43:48;1.62;;;1.00;;
9485;SDS011;4781;48.776;9.200;2022-11-20T10:46:27;2.33;;;1.00;;
9485;SDS011;4781;48.776;9.200;2022-11-20T10:49:15;1.30;;;0.70;;
9485;SDS011;4781;48.776;9.200;2022-11-20T10:51:49;2.45;;;0.90;;
9485;SDS011;4781;48.776;9.200;2022-11-20T10:54:44;1.77;;;0.80;;
9485;SDS011;4781;48.776;9.200;2022-11-20T10:57:29;1.87;;;0.95;;
9485;SDS011;4781;48.776;9.200;2022-11-20T11:00:05;1.98;;;0.70;;
9485;SDS011;4781;48.776;9.200;2022-11-20T11:02:40;4.65;;;0.90;;
9485;SDS011;4781;48.776;9.200;2022-11-20T11:08:17;1.75;;;0.85;;
9485;SDS011;4781;48.776;9.200;2022-11-20T11:10:54;1.92;;;0.75;;
9485;SDS011;4781;48.776;9.200;2022-11-20T11:13:29;1.80;;;0.85;;
9485;SDS011;4781;48.776;9.200;2022-11-20T11:15:58;2.25;;;1.10;;
9485;SDS011;4781;48.776;9.200;2022-11-20T11:18:31;1.65;;;0.93;;
9485;SDS011;4781;48.776;9.200;2022-11-20T11:21:02;3.55;;;1.22;;
9485;SDS011;4781;48.776;9.200;2022-11-20T11:26:06;2.30;;;1.05;;
9485;SDS011;4781;48.776;9.200;2022-11-20T11:28:55;2.20;;;1.20;;
9485;SDS011;4781;48.776;9.200;2022-11-20T11:31:33;1.42;;;0.93;;
9485;SDS011;4781;48.776;9.200;2022-11-20T11:34:05;3.00;;;1.52;;
9485;SDS011;4781;48.776;9.200;2022-11-20T11:36:52;2.90;;;1.27;;
9485;SDS011;4781;48.776;9.200;2022-11-20T11:39:23;3.75;;;1.30;;
9485;SDS011;4781;48.776;9.200;2022-11-20T11:41:53;3.20;;;1.12;;
9485;SDS011;4781;48.776;9.200;2022-11-20T11:44:26;3.20;;;1.30;;
9485;SDS011;4781;48.776;9.200;2022-11-20T11:47:26;3.30;;;1.57;;
9485;SDS011;4781;48.776;9.200;2022-11-20T11:52:50;1.80;;;0.93;;
9485;SDS011;4781;48.776;9.200;2022-11-20T11:55:37;2.47;;;1.05;;
9485;SDS011;4781;48.776;9.200;2022-11-20T12:04:11;2.52;;;1.15;;
9485;SDS011;4781;48.776;9.200;2022-11-20T12:06:58;2.77;;;1.17;;
9485;SDS011;4781;48.776;9.200;2022-11-20T12:09:34;3.02;;;1.20;;
9485;SDS011;4781;48.776;9.200;2022-11-20T12:12:12;2.37;;;1.00;;
9485;SDS011;4781;48.776;9.200;2022-11-20T12:14:45;2.92;;;1.20;;
9485;SDS011;4781;48.776;9.200;2022-11-20T12:17:16;2.58;;;1.05;;
9485;SDS011;4781;48.776;9.200;2022-11-20T12:19:44;2.83;;;1.17;;
9485;SDS011;4781;48.776;9.200;2022-11-20T12:22:23;2.65;;;1.40;;
9485;SDS011;4781;48.776;9.200;2022-11-20T12:25:35;2.20;;;1.25;;
9485;SDS011;4781;48.776;9.200;2022-11-20T12:31:12;3.10;;;1.10;;
9485;SDS011;4781;48.776;9.200;2022-11-20T12:36:52;3.27;;;1.40;;
9485;SDS011;4781;48.776;9.200;2022-11-20T12:42:13;2.75;;;1.10;;
9485;SDS011;4781;48.776;9.200;2022-11-20T12:45:17;4.40;;;1.20;;
9485;SDS011;4781;48.776;9.200;2022-11-20T12:48:16;2.90;;;1.52;;
9485;SDS011;4781;48.776;9.200;2022-11-20T12:51:57;5.92;;;1.75;;
9485;SDS011;4781;48.776;9.200;2022-11-20T13:00:02;2.62;;;0.98;;
9485;SDS011;4781;48.776;9.200;2022-11-20T13:02:39;3.25;;;1.07;;
9485;SDS011;4781;48.776;9.200;2022-11-20T13:05:36;2.40;;;1.17;;
9485;SDS011;4781;48.776;9.200;2022-11-20T13:08:22;3.98;;;0.85;;
9485;SDS011;4781;48.776;9.200;2022-11-20T13:11:07;1.98;;;0.85;;
9485;SDS011;4781;48.776;9.200;2022-11-20T13:13:54;2.50;;;0.80;;
9485;SDS011;4781;48.776;9.200;2022-11-20T13:21:54;4.53;;;1.00;;
9485;SDS011;4781;48.776;9.200;2022-11-20T13:24:24;1.25;;;0.75;;
9485;SDS011;4781;48.776;9.200;2022-11-20T13:38:53;2.00;;;0.80;;
9485;SDS011;4781;48.776;9.200;2022-11-20T13:41:32;1.65;;;0.90;;
9485;SDS011;4781;48.776;9.200;2022-11-20T13:44:15;2.87;;;0.82;;
9485;SDS011;4781;48.776;9.200;2022-11-20T13:46:52;2.25;;;0.90;;
9485;SDS011;4781;48.776;9.200;2022-11-20T13:49:27;1.35;;;0.80;;
9485;SDS011;4781;48.776;9.200;2022-11-20T14:01:09;1.37;;;0.68;;
9485;SDS011;4781;48.776;9.200;2022-11-20T14:03:52;1.02;;;0.70;;
9485;SDS011;4781;48.776;9.200;2022-11-20T14:06:28;1.65;;;0.72;;
9485;SDS011;4781;48.776;9.200;2022-11-20T14:09:24;1.17;;;0.70;;
9485;SDS011;4781;48.776;9.200;2022-11-20T14:11:55;1.07;;;0.65;;
9485;SDS011;4781;48.776;9.200;2022-11-20T14:14:25;2.15;;;0.60;;
9485;SDS011;4781;48.776;9.200;2022-11-20T14:17:17;2.27;;;0.90;;
9485;SDS011;4781;48.776;9.200;2022-11-20T14:20:04;2.27;;;0.90;;
9485;SDS011;4781;48.776;9.200;2022-11-20T14:22:36;1.87;;;1.00;;
9485;SDS011;4781;48.776;9.200;2022-11-20T14:27:53;2.60;;;1.10;;
9485;SDS011;4781;48.776;9.200;2022-11-20T14:30:36;5.15;;;0.82;;
9485;SDS011;4781;48.776;9.200;2022-11-20T14:33:10;1.55;;;0.82;;
9485;SDS011;4781;48.776;9.200;2022-11-20T14:35:47;2.65;;;1.07;;
9485;SDS011;4781;48.776;9.200;2022-11-20T14:38:25;3.60;;;1.27;;
9485;SDS011;4781;48.776;9.200;2022-11-20T14:41:08;1.55;;;0.80;;
9485;SDS011;4781;48.776;9.200;2022-11-20T14:44:00;4.47;;;1.17;;
9485;SDS011;4781;48.776;9.200;2022-11-20T14:46:31;2.50;;;1.15;;
9485;SDS011;4781;48.776;9.200;2022-11-20T14:49:01;1.98;;;0.93;;
9485;SDS011;4781;48.776;9.200;2022-11-20T14:51:34;3.17;;;1.20;;
9485;SDS011;4781;48.776;9.200;2022-11-20T14:56:54;2.52;;;1.00;;
9485;SDS011;4781;48.776;9.200;2022-11-20T14:59:25;2.62;;;0.72;;
9485;SDS011;4781;48.776;9.200;2022-11-20T15:01:59;3.33;;;1.03;;
9485;SDS011;4781;48.776;9.200;2022-11-20T15:04:46;6.42;;;1.77;;
9485;SDS011;4781;48.776;9.200;2022-11-20T15:07:27;6.10;;;1.10;;
9485;SDS011;4781;48.776;9.200;2022-11-20T15:10:02;2.65;;;1.02;;
9485;SDS011;4781;48.776;9.200;2022-11-20T15:12:55;1.95;;;0.90;;
9485;SDS011;4781;48.776;9.200;2022-11-20T15:18:18;1.67;;;1.00;;
9485;SDS011;4781;48.776;9.200;2022-11-20T15:21:03;1.95;;;1.22;;
9485;SDS011;4781;48.776;9.200;2022-11-20T15:23:46;2.52;;;1.27;;
9485;SDS011;4781;48.776;9.200;2022-11-20T15:26:20;5.15;;;1.30;;
9485;SDS011;4781;48.776;9.200;2022-11-20T15:28:53;2.77;;;1.30;;
9485;SDS011;4781;48.776;9.200;2022-11-20T15:31:22;4.35;;;1.40;;
9485;SDS011;4781;48.776;9.200;2022-11-20T15:33:52;5.42;;;1.70;;
9485;SDS011;4781;48.776;9.200;2022-11-20T15:36:20;1.87;;;0.98;;
9485;SDS011;4781;48.776;9.200;2022-11-20T15:38:49;3.75;;;1.10;;
9485;SDS011;4781;48.776;9.200;2022-11-20T15:41:17;3.35;;;1.35;;
9485;SDS011;4781;48.776;9.200;2022-11-20T15:43:46;2.50;;;1.07;;
9485;SDS011;4781;48.776;9.200;2022-11-20T15:46:15;1.67;;;0.93;;
9485;SDS011;4781;48.776;9.200;2022-11-20T15:49:10;2.10;;;1.10;;
9485;SDS011;4781;48.776;9.200;2022-11-20T15:51:47;1.35;;;0.90;;
9485;SDS011;4781;48.776;9.200;2022-11-20T15:54:20;6.55;;;2.00;;
9485;SDS011;4781;48.776;9.200;2022-11-20T15:56:50;5.17;;;2.50;;
9485;SDS011;4781;48.776;9.200;2022-11-20T15:59:25;3.80;;;1.70;;
9485;SDS011;4781;48.776;9.200;2022-11-20T16:04:24;3.33;;;1.52;;
9485;SDS011;4781;48.776;9.200;2022-11-20T16:06:52;2.35;;;0.85;;
9485;SDS011;4781;48.776;9.200;2022-11-20T16:09:21;2.12;;;1.15;;
9485;SDS011;4781;48.776;9.200;2022-11-20T16:11:49;2.85;;;1.20;;
9485;SDS011;4781;48.776;9.200;2022-11-20T16:14:17;6.10;;;1.45;;
9485;SDS011;4781;48.776;9.200;2022-11-20T16:17:04;3.33;;;1.57;;
9485;SDS011;4781;48.776;9.200;2022-11-20T16:19:32;1.70;;;1.00;;
9485;SDS011;4781;48.776;9.200;2022-11-20T16:22:01;2.65;;;1.30;;
9485;SDS011;4781;48.776;9.200;2022-11-20T16:24:29;4.87;;;1.52;;
9485;SDS011;4781;48.776;9.200;2022-11-20T16:26:58;3.52;;;1.50;;
9485;SDS011;4781;48.776;9.200;2022-11-20T16:29:26;3.62;;;1.35;;
9485;SDS011;4781;48.776;9.200;2022-11-20T16:31:56;4.65;;;1.70;;
9485;SDS011;4781;48.776;9.200;2022-11-20T16:34:24;3.00;;;1.40;;
9485;SDS011;4781;48.776;9.200;2022-11-20T16:42:26;4.72;;;1.05;;
9485;SDS011;4781;48.776;9.200;2022-11-20T16:44:56;3.25;;;1.30;;
9485;SDS011;4781;48.776;9.200;2022-11-20T16:47:24;5.42;;;1.30;;
9485;SDS011;4781;48.776;9.200;2022-11-20T16:49:52;6.72;;;1.82;;
9485;SDS011;4781;48.776;9.200;2022-11-20T16:52:21;4.50;;;1.55;;
9485;SDS011;4781;48.776;9.200;2022-11-20T16:54:49;5.20;;;1.80;;
9485;SDS011;4781;48.776;9.200;2022-11-20T16:57:17;4.67;;;1.50;;
9485;SDS011;4781;48.776;9.200;2022-11-20T16:59:46;4.72;;;1.75;;
9485;SDS011;4781;48.776;9.200;2022-11-20T17:02:16;2.90;;;1.47;;
9485;SDS011;4781;48.776;9.200;2022-11-20T17:04:45;3.50;;;1.50;;
9485;SDS011;4781;48.776;9.200;2022-11-20T17:07:13;4.90;;;1.67;;
9485;SDS011;4781;48.776;9.200;2022-11-20T17:09:41;2.70;;;1.32;;
9485;SDS011;4781;48.776;9.200;2022-11-20T17:12:10;3.72;;;1.30;;
9485;SDS011;4781;48.776;9.200;2022-11-20T17:14:38;2.75;;;1.25;;
9485;SDS011;4781;48.776;9.200;2022-11-20T17:17:07;3.10;;;1.52;;
9485;SDS011;4781;48.776;9.200;2022-11-20T17:19:35;5.17;;;1.72;;
9485;SDS011;4781;48.776;9.200;2022-11-20T17:22:03;4.33;;;1.80;;
9485;SDS011;4781;48.776;9.200;2022-11-20T17:24:32;3.95;;;1.30;;